Time;durP1;ratioP1;P1;durP2;ratioP2;P2;SDS_P1;SDS_P2;PMS_P1;PMS_P2;Temp;Humidity;BMP_temperature;BMP_pressure;BME280_temperature;BME280_humidity;BME280_pressure;Samples;Min_cycle;Max_cycle;Signal;HPM_P1;HPM_P2
2021/01/28 00:00:06;;;;;;;162.30;47.95;;;6.10;99.90;;;;;;5089173;28;20035;-77
2021/01/28 00:02:32;;;;;;;165.88;47.42;;;6.10;99.90;;;;;;5090684;28;20368;-77
2021/01/28 00:04:57;;;;;;;158.10;46.53;;;6.10;99.90;;;;;;5089176;28;20099;-77
2021/01/28 00:07:23;;;;;;;145.90;45.85;;;6.10;99.90;;;;;;5088437;28;20092;-77
2021/01/28 00:09:48;;;;;;;157.23;46.22;;;6.10;99.90;;;;;;5088485;28;20074;-77
2021/01/28 00:12:14;;;;;;;164.35;47.45;;;6.10;99.90;;;;;;5087684;28;20050;-77
2021/01/28 00:14:39;;;;;;;181.20;52.78;;;6.10;99.90;;;;;;5091458;28;20028;-77
2021/01/28 00:17:05;;;;;;;189.68;51.22;;;6.10;99.90;;;;;;5090337;28;20021;-77
2021/01/28 00:19:30;;;;;;;184.93;49.58;;;6.20;99.90;;;;;;5093891;28;20441;-77
2021/01/28 00:21:56;;;;;;;204.82;53.00;;;6.20;99.90;;;;;;5094269;28;20032;-77
2021/01/28 00:24:21;;;;;;;203.80;55.50;;;6.10;99.90;;;;;;5094211;28;20007;-77
2021/01/28 00:26:48;;;;;;;219.30;56.55;;;6.20;99.90;;;;;;5093062;28;20028;-77
2021/01/28 00:29:13;;;;;;;205.70;55.17;;;6.20;99.90;;;;;;5093805;28;20012;-77
2021/01/28 00:31:39;;;;;;;231.00;59.03;;;6.20;99.90;;;;;;5094287;28;20037;-77
2021/01/28 00:34:04;;;;;;;215.05;56.63;;;6.20;99.90;;;;;;5097310;28;20028;-78
2021/01/28 00:36:30;;;;;;;219.27;57.35;;;6.20;99.90;;;;;;5097804;28;20008;-77
2021/01/28 00:38:56;;;;;;;214.52;57.47;;;6.20;99.90;;;;;;5096343;28;20058;-77
2021/01/28 00:41:21;;;;;;;233.48;57.35;;;6.20;99.90;;;;;;5095261;28;20056;-77
2021/01/28 00:43:47;;;;;;;223.45;56.97;;;6.10;99.90;;;;;;5095725;28;20051;-77
2021/01/28 00:46:12;;;;;;;216.48;53.58;;;6.20;99.90;;;;;;5097203;28;20020;-77
2021/01/28 00:48:38;;;;;;;214.98;57.15;;;6.20;99.90;;;;;;5078573;28;20078;-77
2021/01/28 00:51:04;;;;;;;209.95;54.83;;;6.20;99.90;;;;;;5093452;28;20037;-77
2021/01/28 00:53:30;;;;;;;188.65;53.63;;;6.20;99.90;;;;;;5093240;28;20021;-78
2021/01/28 00:55:56;;;;;;;200.63;54.67;;;6.20;99.90;;;;;;5094144;28;20402;-78
2021/01/28 00:58:24;;;;;;;180.00;51.95;;;6.20;99.90;;;;;;5096794;28;20025;-77
2021/01/28 01:00:50;;;;;;;182.88;51.40;;;6.20;99.90;;;;;;5096013;28;20024;-77
2021/01/28 01:03:18;;;;;;;183.93;50.67;;;6.30;99.90;;;;;;5093439;28;20084;-77
2021/01/28 01:05:46;;;;;;;180.07;48.08;;;6.20;99.90;;;;;;5097204;28;20024;-77
2021/01/28 01:08:16;;;;;;;173.32;49.38;;;6.20;99.90;;;;;;5095998;28;20021;-77
2021/01/28 01:10:48;;;;;;;148.63;41.70;;;6.20;99.90;;;;;;5096871;28;20028;-77
2021/01/28 01:13:20;;;;;;;157.63;45.38;;;6.20;99.90;;;;;;5090982;28;20450;-77
2021/01/28 01:15:46;;;;;;;160.93;45.65;;;6.30;99.90;;;;;;5093636;28;20051;-78
2021/01/28 01:18:17;;;;;;;165.90;46.95;;;6.20;99.90;;;;;;5098154;28;20039;-78
2021/01/28 01:20:43;;;;;;;169.65;47.72;;;6.30;99.90;;;;;;5091279;28;20023;-77
2021/01/28 01:23:09;;;;;;;163.50;48.60;;;6.30;99.90;;;;;;5094072;28;20016;-77
2021/01/28 01:25:34;;;;;;;183.77;47.92;;;6.30;99.90;;;;;;5099673;28;20024;-77
2021/01/28 01:28:00;;;;;;;178.85;50.03;;;6.30;99.90;;;;;;5093250;28;20024;-77
2021/01/28 01:30:26;;;;;;;171.10;48.80;;;6.30;99.90;;;;;;5091748;28;20051;-77
2021/01/28 01:32:52;;;;;;;175.50;50.22;;;6.30;99.90;;;;;;5097930;28;20027;-77
2021/01/28 01:35:20;;;;;;;193.93;49.40;;;6.20;99.90;;;;;;5099641;28;20084;-77
2021/01/28 01:37:46;;;;;;;184.95;52.05;;;6.30;99.90;;;;;;5096267;28;20035;-77
2021/01/28 01:40:18;;;;;;;192.43;53.53;;;6.30;99.90;;;;;;5096426;28;20004;-77
2021/01/28 01:42:47;;;;;;;180.82;51.78;;;6.30;99.90;;;;;;5099485;28;20023;-78
2021/01/28 01:45:13;;;;;;;202.15;52.72;;;6.30;99.90;;;;;;5097958;28;20013;-77
2021/01/28 01:47:47;;;;;;;203.88;54.70;;;6.30;99.90;;;;;;5097953;28;20024;-78
2021/01/28 01:50:27;;;;;;;200.68;53.55;;;6.30;99.90;;;;;;5098561;28;20016;-77
2021/01/28 01:52:53;;;;;;;207.77;53.45;;;6.30;99.90;;;;;;5097504;28;20050;-77
2021/01/28 01:55:18;;;;;;;221.75;56.22;;;6.20;99.90;;;;;;5096921;28;20032;-77
2021/01/28 01:57:44;;;;;;;200.45;52.92;;;6.20;99.90;;;;;;5099463;28;20019;-77
2021/01/28 02:00:16;;;;;;;229.38;55.08;;;6.20;99.90;;;;;;5098676;28;20052;-76
2021/01/28 02:02:48;;;;;;;224.02;56.10;;;6.20;99.90;;;;;;5098160;28;20040;-77
2021/01/28 02:05:20;;;;;;;246.05;56.38;;;6.20;99.90;;;;;;5097701;28;20016;-78
2021/01/28 02:07:47;;;;;;;229.50;56.78;;;6.20;99.90;;;;;;5097637;28;20013;-77
2021/01/28 02:10:15;;;;;;;257.60;57.50;;;6.20;99.90;;;;;;5098625;28;20017;-77
2021/01/28 02:12:40;;;;;;;252.73;60.08;;;6.20;99.90;;;;;;5097598;28;20079;-78
2021/01/28 02:15:07;;;;;;;270.40;60.55;;;6.20;99.90;;;;;;5097354;28;20009;-77
2021/01/28 02:17:35;;;;;;;275.70;60.97;;;6.10;99.90;;;;;;5097920;28;20008;-78
2021/01/28 02:23:30;;;;;;;288.92;60.85;;;6.10;99.90;;;;;;5130061;27;20358;-78
2021/01/28 02:25:55;;;;;;;261.42;59.10;;;6.10;99.90;;;;;;5132989;28;20118;-78
2021/01/28 02:28:22;;;;;;;297.58;58.90;;;6.10;99.90;;;;;;5132994;28;20023;-77
2021/01/28 02:30:53;;;;;;;260.55;58.63;;;6.10;99.90;;;;;;5136706;28;20004;-78
2021/01/28 02:33:53;;;;;;;265.63;60.38;;;6.10;99.90;;;;;;5134488;28;20027;-78
2021/01/28 02:36:26;;;;;;;289.08;63.20;;;6.10;99.90;;;;;;5133521;28;20446;-77
2021/01/28 02:38:52;;;;;;;317.75;65.82;;;6.10;99.90;;;;;;5133229;28;20016;-77
2021/01/28 02:41:17;;;;;;;339.83;64.28;;;6.00;99.90;;;;;;5133644;28;20018;-77
2021/01/28 02:43:43;;;;;;;391.52;67.28;;;6.00;99.90;;;;;;5134002;28;20028;-78
2021/01/28 02:46:12;;;;;;;401.40;66.55;;;6.00;99.90;;;;;;5131749;28;20035;-77
2021/01/28 02:48:38;;;;;;;384.88;66.70;;;6.00;99.90;;;;;;5135464;28;20007;-77
2021/01/28 02:51:07;;;;;;;325.70;63.17;;;6.00;99.90;;;;;;5134485;28;20031;-77
2021/01/28 02:53:44;;;;;;;338.10;63.42;;;6.00;99.90;;;;;;5136652;28;20016;-77
2021/01/28 02:56:10;;;;;;;352.10;63.88;;;5.90;99.90;;;;;;5135152;28;20026;-78
2021/01/28 02:58:36;;;;;;;392.52;67.65;;;5.90;99.90;;;;;;5134044;28;20008;-77
2021/01/28 03:01:03;;;;;;;362.83;67.72;;;5.90;99.90;;;;;;5136521;28;20037;-77
2021/01/28 03:03:29;;;;;;;335.92;68.28;;;5.90;99.90;;;;;;5136352;28;20016;-77
2021/01/28 03:05:55;;;;;;;341.38;67.70;;;5.90;99.90;;;;;;5135560;28;20027;-77
2021/01/28 03:08:21;;;;;;;353.58;64.82;;;5.90;99.90;;;;;;5130220;28;20062;-75
2021/01/28 03:10:47;;;;;;;345.38;66.25;;;5.90;99.90;;;;;;5120474;28;20034;-77
2021/01/28 03:13:13;;;;;;;361.80;66.50;;;5.90;99.90;;;;;;5134263;28;20016;-78
2021/01/28 03:15:39;;;;;;;364.67;67.10;;;5.90;99.90;;;;;;5131308;28;20084;-78
2021/01/28 03:18:06;;;;;;;336.63;66.35;;;5.80;99.90;;;;;;5113759;28;20004;-78
2021/01/28 03:20:32;;;;;;;380.15;67.03;;;5.90;99.90;;;;;;5135405;28;20008;-78
2021/01/28 03:22:58;;;;;;;344.02;67.28;;;5.80;99.90;;;;;;5135203;28;20032;-77
2021/01/28 03:25:25;;;;;;;347.75;64.63;;;5.80;99.90;;;;;;5133063;28;20039;-79
2021/01/28 03:27:51;;;;;;;321.65;63.95;;;5.90;99.90;;;;;;5131608;28;20011;-76
2021/01/28 03:30:25;;;;;;;346.20;65.97;;;5.80;99.90;;;;;;5130155;28;20043;-77
2021/01/28 03:32:50;;;;;;;374.73;65.53;;;5.90;99.90;;;;;;5126731;28;20065;-78
2021/01/28 03:35:18;;;;;;;351.00;63.00;;;5.90;99.90;;;;;;5117484;28;20095;-77
2021/01/28 03:37:44;;;;;;;320.38;60.38;;;5.80;99.90;;;;;;5120177;28;20050;-78
2021/01/28 03:40:10;;;;;;;333.33;63.67;;;5.90;99.90;;;;;;5120128;28;20016;-78
2021/01/28 03:42:36;;;;;;;322.27;61.08;;;5.90;99.90;;;;;;5119928;28;20032;-78
2021/01/28 03:45:02;;;;;;;343.45;63.45;;;5.90;99.90;;;;;;5118603;28;20042;-78
2021/01/28 03:47:28;;;;;;;340.25;63.70;;;5.90;99.90;;;;;;5120916;28;20129;-77
2021/01/28 03:49:53;;;;;;;407.60;65.05;;;5.90;99.90;;;;;;5120136;28;20028;-77
2021/01/28 03:52:19;;;;;;;326.10;60.30;;;5.90;99.90;;;;;;5120129;28;20024;-78
2021/01/28 03:54:45;;;;;;;285.65;61.20;;;5.90;99.90;;;;;;5121000;28;20092;-77
2021/01/28 03:57:11;;;;;;;313.35;60.95;;;5.90;99.90;;;;;;5121193;28;20069;-78
2021/01/28 03:59:36;;;;;;;325.92;61.85;;;5.90;99.90;;;;;;5120009;28;20028;-77
2021/01/28 04:02:02;;;;;;;337.33;61.75;;;5.80;99.90;;;;;;5120670;28;20028;-77
2021/01/28 04:04:27;;;;;;;315.50;60.60;;;5.90;99.90;;;;;;5118839;28;20083;-77
2021/01/28 04:06:53;;;;;;;307.67;62.13;;;5.90;99.90;;;;;;5120978;28;20072;-77
2021/01/28 04:09:18;;;;;;;305.17;60.20;;;5.90;99.90;;;;;;5119633;28;20016;-77
2021/01/28 04:11:44;;;;;;;300.42;59.85;;;5.90;99.90;;;;;;5119759;28;20050;-77
2021/01/28 04:14:10;;;;;;;327.70;60.25;;;5.90;99.90;;;;;;5118374;28;20161;-77
2021/01/28 04:16:35;;;;;;;320.55;61.85;;;5.90;99.90;;;;;;5120203;28;20062;-77
2021/01/28 04:19:01;;;;;;;342.40;61.38;;;5.80;99.90;;;;;;5119393;28;20008;-77
2021/01/28 04:21:26;;;;;;;294.63;58.47;;;5.90;99.90;;;;;;5120676;28;20052;-77
2021/01/28 04:23:52;;;;;;;283.23;55.95;;;5.80;99.90;;;;;;5119548;28;20016;-77
2021/01/28 04:26:18;;;;;;;304.10;55.17;;;5.90;99.90;;;;;;5121007;28;20031;-77
2021/01/28 04:28:44;;;;;;;284.05;56.20;;;5.80;99.90;;;;;;5118768;28;20036;-77
2021/01/28 04:31:09;;;;;;;271.27;54.55;;;5.80;99.90;;;;;;5120592;28;20016;-77
2021/01/28 04:33:35;;;;;;;265.40;54.75;;;5.80;99.90;;;;;;5118751;28;20013;-78
2021/01/28 04:36:02;;;;;;;241.88;51.60;;;5.80;99.90;;;;;;5120806;28;20038;-77
2021/01/28 04:38:27;;;;;;;265.42;52.47;;;5.80;99.90;;;;;;5120541;28;20072;-77
2021/01/28 04:41:09;;;;;;;263.05;51.03;;;5.80;99.90;;;;;;5118626;28;20012;-77
2021/01/28 04:43:35;;;;;;;272.17;53.28;;;5.80;99.90;;;;;;5117911;28;20004;-77
2021/01/28 04:46:06;;;;;;;270.67;53.58;;;5.80;99.90;;;;;;5117069;28;20016;-77
2021/01/28 04:48:33;;;;;;;271.67;52.75;;;5.70;99.90;;;;;;5118503;28;20020;-75
2021/01/28 04:51:01;;;;;;;278.52;52.65;;;5.70;99.90;;;;;;5118546;28;20046;-76
2021/01/28 04:53:49;;;;;;;302.60;52.92;;;5.70;99.90;;;;;;5120447;28;20080;-78
2021/01/28 04:56:21;;;;;;;258.30;50.13;;;5.70;99.90;;;;;;5119819;28;20011;-78
2021/01/28 04:58:47;;;;;;;262.15;50.83;;;5.70;99.90;;;;;;5120091;28;20027;-77
2021/01/28 05:01:13;;;;;;;245.88;50.85;;;5.70;99.90;;;;;;5120013;28;20036;-77
2021/01/28 05:03:43;;;;;;;230.77;48.85;;;5.70;99.90;;;;;;5119208;28;20004;-77
2021/01/28 05:06:11;;;;;;;234.48;50.05;;;5.70;99.90;;;;;;5114322;28;20096;-78
2021/01/28 05:08:36;;;;;;;264.52;53.55;;;5.70;99.90;;;;;;5116290;28;20035;-77
2021/01/28 05:11:02;;;;;;;243.55;52.38;;;5.70;99.90;;;;;;5117299;28;20032;-75
2021/01/28 05:13:31;;;;;;;251.90;53.13;;;5.70;99.90;;;;;;5114363;28;20026;-77
2021/01/28 05:16:00;;;;;;;220.43;50.30;;;5.70;99.90;;;;;;5116344;28;20028;-77
2021/01/28 05:18:36;;;;;;;235.50;49.55;;;5.70;99.90;;;;;;5118457;28;20077;-76
2021/01/28 05:21:08;;;;;;;226.93;50.30;;;5.70;99.90;;;;;;5115865;28;20040;-77
2021/01/28 05:23:38;;;;;;;236.40;50.53;;;5.60;99.90;;;;;;5111947;28;20021;-77
2021/01/28 05:26:39;;;;;;;241.40;54.03;;;5.60;99.90;;;;;;5118726;28;20016;-77
2021/01/28 05:29:17;;;;;;;288.42;52.40;;;5.60;99.90;;;;;;5118108;28;20032;-77
2021/01/28 05:31:43;;;;;;;255.55;51.13;;;5.60;99.90;;;;;;5117484;28;20020;-77
2021/01/28 05:34:11;;;;;;;232.90;49.05;;;5.50;99.90;;;;;;5117102;28;20024;-77
2021/01/28 05:36:50;;;;;;;228.05;48.08;;;5.60;99.90;;;;;;5115813;28;20070;-77
2021/01/28 05:39:35;;;;;;;231.60;50.58;;;5.60;99.90;;;;;;5114150;28;20027;-77
2021/01/28 05:42:11;;;;;;;226.02;50.08;;;5.60;99.90;;;;;;5117994;28;20043;-77
2021/01/28 05:44:38;;;;;;;206.02;49.70;;;5.60;99.90;;;;;;5105784;28;20058;-76
2021/01/28 05:47:11;;;;;;;225.07;49.40;;;5.60;99.90;;;;;;5104652;28;20074;-77
2021/01/28 05:49:41;;;;;;;202.45;48.90;;;5.50;99.90;;;;;;5103462;28;20024;-77
2021/01/28 05:52:28;;;;;;;206.35;50.55;;;5.60;99.90;;;;;;5096962;28;20074;-77
2021/01/28 05:55:15;;;;;;;216.32;51.45;;;5.60;99.90;;;;;;5106233;28;20518;-77
2021/01/28 06:00:34;;;;;;;220.82;52.58;;;5.50;99.90;;;;;;5121276;27;20400;-78
2021/01/28 06:03:19;;;;;;;205.30;53.08;;;5.40;99.90;;;;;;5113408;28;20039;-78
2021/01/28 06:05:58;;;;;;;198.10;52.83;;;5.40;99.90;;;;;;5113647;28;20031;-77
2021/01/28 06:08:55;;;;;;;193.15;50.47;;;5.50;99.90;;;;;;5112433;28;20020;-75
2021/01/28 06:12:01;;;;;;;177.73;47.47;;;5.50;99.90;;;;;;5112447;28;20043;-75
2021/01/28 06:20:43;;;;;;;156.70;46.03;;;5.50;99.90;;;;;;5132715;27;668838;-75
2021/01/28 06:23:34;;;;;;;157.10;46.15;;;5.50;99.90;;;;;;5131824;28;20043;-75
2021/01/28 06:26:24;;;;;;;146.27;45.05;;;5.50;99.90;;;;;;5132171;27;20020;-75
2021/01/28 06:29:23;;;;;;;154.82;44.88;;;5.50;99.90;;;;;;5132547;28;20045;-75
2021/01/28 06:32:26;;;;;;;129.88;42.35;;;5.50;99.90;;;;;;5143988;27;20015;-78
2021/01/28 06:35:23;;;;;;;129.02;40.25;;;5.50;99.90;;;;;;5149682;27;20080;-78
2021/01/28 06:38:28;;;;;;;117.63;40.45;;;5.40;99.90;;;;;;5150667;28;20045;-77
2021/01/28 06:40:59;;;;;;;141.80;40.85;;;5.40;99.90;;;;;;5151186;28;20077;-77
2021/01/28 06:43:33;;;;;;;134.07;41.33;;;5.40;99.90;;;;;;5153812;27;20103;-77
2021/01/28 06:46:01;;;;;;;129.85;41.58;;;5.40;99.90;;;;;;5150738;27;20094;-77
2021/01/28 06:48:41;;;;;;;123.65;42.35;;;5.40;99.90;;;;;;5148158;27;20020;-77
2021/01/28 06:51:19;;;;;;;123.13;41.47;;;5.40;99.90;;;;;;5139686;27;20034;-77
2021/01/28 06:53:49;;;;;;;111.40;39.15;;;5.30;99.90;;;;;;5136782;28;20118;-77
2021/01/28 06:56:41;;;;;;;118.15;39.28;;;5.40;99.90;;;;;;5142982;28;20039;-77
2021/01/28 06:59:47;;;;;;;121.47;40.15;;;5.40;99.90;;;;;;5143023;27;20038;-78
2021/01/28 07:02:38;;;;;;;114.18;39.33;;;5.40;99.90;;;;;;5141208;28;20024;-77
2021/01/28 07:05:28;;;;;;;113.57;39.88;;;5.40;99.90;;;;;;5131244;28;20023;-77
2021/01/28 07:08:03;;;;;;;119.47;38.67;;;5.40;99.90;;;;;;5124301;28;20053;-75
2021/01/28 07:10:37;;;;;;;119.90;44.30;;;5.40;99.90;;;;;;5138132;27;20030;-77
2021/01/28 07:13:04;;;;;;;106.68;38.60;;;5.40;99.90;;;;;;5132675;28;20077;-79
2021/01/28 07:15:30;;;;;;;106.93;36.67;;;5.40;99.90;;;;;;5132303;27;20521;-81
2021/01/28 07:18:05;;;;;;;101.68;37.38;;;5.40;99.90;;;;;;5131130;28;20103;-76
2021/01/28 07:20:34;;;;;;;114.25;37.47;;;5.40;99.90;;;;;;5130415;28;20080;-76
2021/01/28 07:26:20;;;;;;;98.60;35.15;;;5.40;99.90;;;;;;5112116;27;20351;-79
2021/01/28 07:28:49;;;;;;;97.80;35.42;;;5.40;99.90;;;;;;5111319;28;20416;-77
2021/01/28 07:31:43;;;;;;;96.53;34.92;;;5.40;99.90;;;;;;5111655;28;20506;-77
2021/01/28 07:34:12;;;;;;;88.43;34.42;;;5.50;99.90;;;;;;5111765;28;20078;-77
2021/01/28 07:36:43;;;;;;;92.13;34.78;;;5.40;99.90;;;;;;5110739;28;20037;-77
2021/01/28 07:42:23;;;;;;;85.43;33.63;;;5.40;99.90;;;;;;5113718;27;20109;-76
2021/01/28 07:44:52;;;;;;;91.43;35.05;;;5.40;99.90;;;;;;5110929;28;20431;-76
2021/01/28 07:47:45;;;;;;;89.28;34.10;;;5.40;99.90;;;;;;5111615;28;20035;-75
2021/01/28 07:50:32;;;;;;;96.22;34.65;;;5.40;99.90;;;;;;5110681;28;20085;-75
2021/01/28 07:53:38;;;;;;;102.35;36.30;;;5.40;99.90;;;;;;5111286;28;20081;-74
2021/01/28 07:56:04;;;;;;;97.15;36.17;;;5.40;99.90;;;;;;5090780;28;20055;-74
2021/01/28 07:58:34;;;;;;;98.50;37.00;;;5.30;99.90;;;;;;5091328;28;20458;-74
2021/01/28 08:01:07;;;;;;;106.07;38.70;;;5.30;99.90;;;;;;5110169;28;20039;-74
2021/01/28 08:03:39;;;;;;;99.88;37.70;;;5.30;99.90;;;;;;5111428;28;20016;-77
2021/01/28 08:06:11;;;;;;;92.78;35.70;;;5.30;99.90;;;;;;5110540;28;20055;-75
2021/01/28 08:08:37;;;;;;;93.45;35.50;;;5.30;99.90;;;;;;5093534;28;20028;-75
2021/01/28 08:11:22;;;;;;;83.70;31.50;;;5.20;99.90;;;;;;5111375;28;20114;-77
2021/01/28 08:13:54;;;;;;;78.70;29.58;;;5.30;99.90;;;;;;5111077;28;20499;-75
2021/01/28 08:16:20;;;;;;;84.50;30.13;;;5.20;99.90;;;;;;5109982;28;20024;-75
2021/01/28 08:19:02;;;;;;;78.70;30.52;;;5.20;99.90;;;;;;5111345;28;20143;-75
2021/01/28 08:21:28;;;;;;;81.03;31.67;;;5.20;99.90;;;;;;5105958;28;20143;-76
2021/01/28 08:23:55;;;;;;;84.53;30.77;;;5.10;99.90;;;;;;5112118;28;20097;-78
2021/01/28 08:26:30;;;;;;;84.93;32.53;;;5.10;99.90;;;;;;5111539;28;20016;-77
2021/01/28 08:29:17;;;;;;;81.72;32.30;;;5.00;99.90;;;;;;5110992;28;20024;-77
2021/01/28 08:31:54;;;;;;;79.35;32.20;;;5.00;99.90;;;;;;5111457;28;20016;-73
2021/01/28 08:34:25;;;;;;;79.20;30.45;;;5.00;99.90;;;;;;5109335;28;20028;-74
2021/01/28 08:36:55;;;;;;;73.53;29.40;;;5.00;99.90;;;;;;5110452;28;20032;-74
2021/01/28 08:39:36;;;;;;;87.13;30.75;;;4.90;99.90;;;;;;5110426;28;20020;-73
2021/01/28 08:42:10;;;;;;;71.55;27.35;;;4.90;99.90;;;;;;5109937;28;20052;-75
2021/01/28 08:44:39;;;;;;;75.78;28.20;;;4.90;99.90;;;;;;5110685;28;20020;-74
2021/01/28 08:47:23;;;;;;;64.72;27.13;;;4.90;99.90;;;;;;5110037;28;20027;-74
2021/01/28 08:50:17;;;;;;;64.75;26.33;;;4.90;99.90;;;;;;5110450;28;20031;-74
2021/01/28 08:52:45;;;;;;;65.32;25.70;;;4.90;99.90;;;;;;5099151;28;20016;-72
2021/01/28 08:55:19;;;;;;;62.67;25.25;;;4.90;99.90;;;;;;5077995;28;20016;-71
2021/01/28 08:57:45;;;;;;;65.57;26.25;;;4.90;99.90;;;;;;5096742;28;20016;-74
2021/01/28 09:00:14;;;;;;;56.40;24.35;;;4.90;99.90;;;;;;5095587;28;20503;-74
2021/01/28 09:02:44;;;;;;;57.58;24.90;;;4.80;99.90;;;;;;5094874;28;20016;-73
2021/01/28 09:05:32;;;;;;;65.25;24.88;;;4.90;99.90;;;;;;5079147;28;20024;-72
2021/01/28 09:08:00;;;;;;;66.03;25.30;;;4.90;99.90;;;;;;5096012;28;20024;-74
2021/01/28 09:10:34;;;;;;;59.05;22.33;;;4.90;99.90;;;;;;5096312;28;20065;-74
2021/01/28 09:13:22;;;;;;;57.58;23.20;;;4.90;99.90;;;;;;5096493;28;20063;-73
2021/01/28 09:16:09;;;;;;;60.47;24.25;;;4.90;99.90;;;;;;5096105;28;20020;-73
2021/01/28 09:18:38;;;;;;;70.80;27.15;;;4.90;99.90;;;;;;5096007;28;20032;-72
2021/01/28 09:21:08;;;;;;;71.35;25.95;;;4.90;99.90;;;;;;5094545;28;20024;-73
2021/01/28 09:23:34;;;;;;;69.10;26.08;;;4.90;99.90;;;;;;5095835;28;20380;-72
2021/01/28 09:26:21;;;;;;;68.50;27.20;;;4.90;99.90;;;;;;5094081;28;20024;-74
2021/01/28 09:28:46;;;;;;;78.53;29.70;;;4.90;99.90;;;;;;5096037;28;20048;-74
2021/01/28 09:31:26;;;;;;;70.65;29.20;;;4.90;99.90;;;;;;5095929;28;20362;-73
2021/01/28 09:33:52;;;;;;;73.88;29.35;;;4.90;99.90;;;;;;5096073;28;20046;-70
2021/01/28 09:36:27;;;;;;;81.95;31.15;;;4.90;99.90;;;;;;5095809;28;20024;-70
2021/01/28 09:39:19;;;;;;;83.50;31.02;;;4.90;99.90;;;;;;5094411;28;20437;-71
2021/01/28 09:41:50;;;;;;;78.03;31.33;;;4.90;99.90;;;;;;5095017;28;20135;-70
2021/01/28 09:44:39;;;;;;;91.47;31.70;;;4.90;99.90;;;;;;5095632;28;20377;-72
2021/01/28 09:47:19;;;;;;;83.18;31.45;;;4.90;99.90;;;;;;5095566;28;20481;-71
2021/01/28 09:49:47;;;;;;;80.50;30.48;;;4.90;99.90;;;;;;5094357;28;20046;-71
2021/01/28 09:52:35;;;;;;;89.38;32.88;;;4.90;99.90;;;;;;5095690;28;20048;-71
2021/01/28 09:55:04;;;;;;;84.97;32.25;;;4.90;99.90;;;;;;5095597;28;20066;-71
2021/01/28 09:57:30;;;;;;;90.35;31.77;;;4.90;99.90;;;;;;5095619;28;20024;-71
2021/01/28 09:59:57;;;;;;;87.57;31.98;;;4.90;99.90;;;;;;5093568;28;20442;-71
2021/01/28 10:02:49;;;;;;;87.93;31.88;;;4.90;99.90;;;;;;5094868;28;20047;-72
2021/01/28 10:05:18;;;;;;;81.80;31.17;;;4.90;99.90;;;;;;5094472;28;20024;-71
2021/01/28 10:07:47;;;;;;;84.53;31.33;;;4.90;99.90;;;;;;5077630;28;20024;-71
2021/01/28 10:10:14;;;;;;;90.15;31.08;;;4.90;99.90;;;;;;5091239;28;20027;-70
2021/01/28 10:12:40;;;;;;;76.53;29.20;;;4.90;99.90;;;;;;5082153;28;20119;-71
2021/01/28 10:15:07;;;;;;;85.22;31.48;;;4.90;99.90;;;;;;5087047;28;20111;-71
2021/01/28 10:17:33;;;;;;;81.00;31.67;;;4.80;99.90;;;;;;5089804;28;20043;-72
2021/01/28 10:19:58;;;;;;;82.72;30.73;;;4.90;99.90;;;;;;5075192;28;20415;-73
2021/01/28 10:22:24;;;;;;;79.50;29.45;;;4.90;99.90;;;;;;5074481;28;20152;-71
2021/01/28 10:24:50;;;;;;;80.80;31.23;;;4.80;99.90;;;;;;5074438;28;20032;-72
2021/01/28 10:27:16;;;;;;;76.32;29.20;;;4.80;99.90;;;;;;5093780;28;20542;-73
2021/01/28 10:29:43;;;;;;;77.45;29.13;;;4.90;99.90;;;;;;5093321;28;20027;-71
2021/01/28 10:32:12;;;;;;;71.25;28.45;;;4.80;99.90;;;;;;5094546;28;20031;-72
2021/01/28 10:34:38;;;;;;;68.07;28.10;;;4.80;99.90;;;;;;5094804;28;20024;-72
2021/01/28 10:37:05;;;;;;;74.55;28.88;;;4.90;99.90;;;;;;5082092;28;20031;-73
2021/01/28 10:39:31;;;;;;;70.07;28.63;;;4.80;99.90;;;;;;5091160;28;20027;-72
2021/01/28 10:41:56;;;;;;;76.82;28.77;;;4.80;99.90;;;;;;5092577;28;20092;-71
2021/01/28 10:44:23;;;;;;;73.32;27.38;;;4.80;99.90;;;;;;5086962;28;20090;-71
2021/01/28 10:46:49;;;;;;;69.57;28.25;;;4.80;99.90;;;;;;5079280;28;20432;-71
2021/01/28 10:49:15;;;;;;;62.90;27.92;;;4.80;99.90;;;;;;5074031;28;20055;-72
2021/01/28 10:51:41;;;;;;;70.85;28.33;;;4.80;99.90;;;;;;5074276;28;20422;-71
2021/01/28 10:54:07;;;;;;;67.78;27.73;;;4.90;99.90;;;;;;5074239;28;20020;-71
2021/01/28 10:56:33;;;;;;;66.63;28.38;;;4.90;99.90;;;;;;5072736;28;20458;-71
2021/01/28 10:58:58;;;;;;;59.28;25.55;;;4.90;99.90;;;;;;5074253;28;20090;-71
2021/01/28 11:01:24;;;;;;;64.22;25.40;;;4.90;99.90;;;;;;5073792;28;20032;-72
2021/01/28 11:03:50;;;;;;;57.67;25.08;;;4.90;99.90;;;;;;5092072;28;20111;-74
2021/01/28 11:06:15;;;;;;;52.78;23.10;;;4.90;99.90;;;;;;5094153;28;20024;-71
2021/01/28 11:08:41;;;;;;;59.75;24.38;;;4.90;99.90;;;;;;5093760;28;20095;-71
2021/01/28 11:11:07;;;;;;;57.65;24.98;;;4.90;99.90;;;;;;5088877;28;20097;-72
2021/01/28 11:13:33;;;;;;;57.80;25.42;;;4.90;99.90;;;;;;5079189;28;20020;-71
2021/01/28 11:15:59;;;;;;;68.20;27.40;;;5.00;99.90;;;;;;5089903;28;20084;-71
2021/01/28 11:18:24;;;;;;;56.45;25.80;;;5.00;99.90;;;;;;5056126;28;20366;-71
2021/01/28 11:20:50;;;;;;;59.75;25.92;;;5.00;99.90;;;;;;5082964;28;20479;-70
2021/01/28 11:23:16;;;;;;;58.03;24.65;;;5.00;99.90;;;;;;5082753;28;20024;-70
2021/01/28 11:25:41;;;;;;;59.63;25.65;;;5.00;99.90;;;;;;5084789;28;20092;-71
2021/01/28 11:28:07;;;;;;;58.13;25.05;;;5.00;99.90;;;;;;5092845;28;20032;-73
2021/01/28 11:30:34;;;;;;;63.40;26.42;;;5.10;99.90;;;;;;5093764;28;20469;-71
2021/01/28 11:33:01;;;;;;;61.55;25.10;;;5.10;99.90;;;;;;5092370;28;20509;-71
2021/01/28 11:35:31;;;;;;;59.33;25.45;;;5.10;99.90;;;;;;5093626;28;20031;-71
2021/01/28 11:38:00;;;;;;;57.17;24.67;;;5.10;99.90;;;;;;5077107;28;20470;-72
2021/01/28 11:40:27;;;;;;;60.78;25.25;;;5.20;99.90;;;;;;5073364;28;20068;-71
2021/01/28 11:42:53;;;;;;;57.10;23.63;;;5.20;99.90;;;;;;5073099;28;20017;-71
2021/01/28 11:45:23;;;;;;;59.08;24.83;;;5.30;99.90;;;;;;5083892;28;20111;-71
2021/01/28 11:47:48;;;;;;;59.78;23.65;;;5.30;99.90;;;;;;5094007;28;20103;-71
2021/01/28 11:50:15;;;;;;;61.17;24.77;;;5.30;99.90;;;;;;5093861;28;20055;-72
2021/01/28 11:52:40;;;;;;;57.35;24.52;;;5.30;99.90;;;;;;5093876;28;20059;-73
2021/01/28 11:55:09;;;;;;;52.42;25.35;;;5.30;99.90;;;;;;5093536;28;20432;-72
2021/01/28 11:57:34;;;;;;;55.97;25.25;;;5.30;99.90;;;;;;5093851;28;20112;-72
2021/01/28 12:00:00;;;;;;;52.88;23.13;;;5.30;99.90;;;;;;5093751;28;20472;-71
2021/01/28 12:02:25;;;;;;;49.90;24.10;;;5.30;99.90;;;;;;5093832;28;20034;-72
2021/01/28 12:04:51;;;;;;;53.58;23.77;;;5.30;99.90;;;;;;5093746;28;20024;-72
2021/01/28 12:07:17;;;;;;;58.58;26.38;;;5.30;99.90;;;;;;5093472;28;20056;-72
2021/01/28 12:09:44;;;;;;;59.38;25.38;;;5.30;99.90;;;;;;5093654;28;20012;-73
2021/01/28 12:12:10;;;;;;;62.10;25.13;;;5.30;99.90;;;;;;5093647;28;20024;-73
2021/01/28 12:14:35;;;;;;;56.17;25.08;;;5.30;99.90;;;;;;5092212;28;20445;-73
2021/01/28 12:17:01;;;;;;;62.22;27.10;;;5.40;99.90;;;;;;5092908;28;20032;-72
2021/01/28 12:19:27;;;;;;;68.65;30.80;;;5.40;99.90;;;;;;5091718;28;20024;-72
2021/01/28 12:21:52;;;;;;;65.78;28.52;;;5.40;99.90;;;;;;5092838;28;20474;-71
2021/01/28 12:24:17;;;;;;;64.60;28.40;;;5.30;99.90;;;;;;5080556;28;20027;-72
2021/01/28 12:26:43;;;;;;;56.25;25.98;;;5.40;99.90;;;;;;5081039;28;20476;-73
2021/01/28 12:29:09;;;;;;;62.25;27.63;;;5.40;99.90;;;;;;5091600;28;20028;-73
2021/01/28 12:31:34;;;;;;;63.40;26.95;;;5.40;99.90;;;;;;5076675;28;20100;-73
2021/01/28 12:34:00;;;;;;;54.25;25.85;;;5.40;99.90;;;;;;5076906;28;20035;-72
2021/01/28 12:36:25;;;;;;;52.53;23.95;;;5.40;99.90;;;;;;5076994;28;20024;-72
2021/01/28 12:38:51;;;;;;;55.22;24.90;;;5.40;99.90;;;;;;5076818;28;20119;-73
2021/01/28 12:41:16;;;;;;;46.28;21.48;;;5.40;99.90;;;;;;5076333;28;20041;-73
2021/01/28 12:43:42;;;;;;;48.58;22.77;;;5.40;99.90;;;;;;5076920;28;20404;-72
2021/01/28 12:46:08;;;;;;;46.05;21.83;;;5.40;99.90;;;;;;5076318;28;20035;-71
2021/01/28 12:48:34;;;;;;;45.92;22.13;;;5.40;99.90;;;;;;5075626;28;20489;-71
2021/01/28 12:50:59;;;;;;;39.28;19.58;;;5.30;99.90;;;;;;5076798;28;20032;-72
2021/01/28 12:53:25;;;;;;;43.47;20.90;;;5.40;99.90;;;;;;5076623;28;20474;-72
2021/01/28 12:55:50;;;;;;;44.33;20.85;;;5.40;99.90;;;;;;5075126;28;20496;-72
2021/01/28 12:58:17;;;;;;;39.72;19.83;;;5.30;99.90;;;;;;5074763;28;20036;-72
2021/01/28 13:00:42;;;;;;;38.45;19.33;;;5.40;99.90;;;;;;5074975;28;20039;-71
2021/01/28 13:03:08;;;;;;;37.40;19.63;;;5.30;99.90;;;;;;5074646;28;20020;-72
2021/01/28 13:05:33;;;;;;;38.00;19.30;;;5.40;99.90;;;;;;5076031;28;20029;-70